createdAt,value
2024-01-20T00:00:13.811Z,1022.57
2024-01-20T00:01:14.076Z,1022.69
2024-01-20T00:02:14.278Z,1022.56
2024-01-20T00:03:14.380Z,1022.58
2024-01-20T00:04:14.662Z,1022.62
2024-01-20T00:05:14.798Z,1022.53
2024-01-20T00:06:15.079Z,1022.61
2024-01-20T00:07:15.122Z,1022.49
2024-01-20T00:08:15.303Z,1022.60
2024-01-20T00:09:15.458Z,1022.62
2024-01-20T00:10:15.665Z,1022.56
2024-01-20T00:11:16.111Z,1022.56
2024-01-20T00:12:16.040Z,1022.67
2024-01-20T00:13:16.240Z,1022.70
2024-01-20T00:14:16.481Z,1022.72
2024-01-20T00:15:16.663Z,1022.75
2024-01-20T00:16:16.924Z,1022.56
2024-01-20T00:17:23.780Z,1022.60
2024-01-20T00:18:18.464Z,1022.61
2024-01-20T00:19:17.446Z,1022.66
2024-01-20T00:20:17.593Z,1022.63
2024-01-20T00:21:17.788Z,1022.71
2024-01-20T00:22:17.943Z,1022.64
2024-01-20T00:23:18.261Z,1022.76
2024-01-20T00:24:18.320Z,1022.75
2024-01-20T00:25:18.515Z,1022.83
2024-01-20T00:26:18.795Z,1022.75
2024-01-20T00:27:18.922Z,1022.77
2024-01-20T00:28:19.091Z,1022.81
2024-01-20T00:29:19.318Z,1022.85
2024-01-20T00:30:19.444Z,1022.73
2024-01-20T00:31:19.656Z,1022.65
2024-01-20T00:32:19.863Z,1022.79
2024-01-20T00:33:20.059Z,1022.74
2024-01-20T00:34:20.184Z,1022.70
2024-01-20T00:35:20.387Z,1022.76
2024-01-20T00:36:20.544Z,1022.70
2024-01-20T00:37:20.921Z,1022.74
2024-01-20T00:38:20.992Z,1022.83
2024-01-20T00:39:21.127Z,1022.72
2024-01-20T00:40:21.343Z,1022.78
2024-01-20T00:41:22.808Z,1022.78
2024-01-20T00:42:21.816Z,1022.84
2024-01-20T00:43:21.902Z,1022.90
2024-01-20T00:44:22.104Z,1022.87
2024-01-20T00:45:22.299Z,1022.99
2024-01-20T00:46:22.465Z,1023.00
2024-01-20T00:47:22.799Z,1023.01
2024-01-20T00:48:22.933Z,1023.00
2024-01-20T00:49:23.029Z,1022.90
2024-01-20T00:50:23.386Z,1023.13
2024-01-20T00:51:23.421Z,1023.06
2024-01-20T00:52:23.617Z,1022.97
2024-01-20T00:53:23.823Z,1023.02
2024-01-20T00:54:23.992Z,1023.03
2024-01-20T00:55:24.221Z,1023.18
2024-01-20T00:56:24.422Z,1023.12
2024-01-20T00:57:24.535Z,1023.22
2024-01-20T00:58:24.698Z,1023.22
2024-01-20T00:59:24.909Z,1023.31
2024-01-20T01:00:25.097Z,1023.05
2024-01-20T01:01:25.260Z,1023.01
2024-01-20T01:02:25.516Z,1023.20
2024-01-20T01:03:25.632Z,1023.05
2024-01-20T01:04:25.810Z,1023.06
2024-01-20T01:05:26.050Z,1023.06
2024-01-20T01:06:26.226Z,1023.40
2024-01-20T01:07:26.376Z,1023.12
2024-01-20T01:08:26.552Z,1023.24
2024-01-20T01:09:26.726Z,1023.18
2024-01-20T01:10:26.990Z,1023.15
2024-01-20T01:11:27.111Z,1023.23
2024-01-20T01:12:27.321Z,1023.22
2024-01-20T01:13:27.499Z,1023.30
2024-01-20T01:14:27.732Z,1023.26
2024-01-20T01:15:27.991Z,1023.29
2024-01-20T01:16:28.055Z,1023.38
2024-01-20T01:17:28.297Z,1023.30
2024-01-20T01:18:28.437Z,1023.29
2024-01-20T01:19:28.634Z,1023.36
2024-01-20T01:20:28.815Z,1023.41
2024-01-20T01:21:29.000Z,1023.44
2024-01-20T01:22:29.193Z,1023.33
2024-01-20T01:23:29.462Z,1023.35
2024-01-20T01:24:29.574Z,1023.26
2024-01-20T01:25:29.749Z,1023.44
2024-01-20T01:26:32.066Z,1023.42
2024-01-20T01:27:30.176Z,1023.50
2024-01-20T01:28:30.296Z,1023.45
2024-01-20T01:29:30.570Z,1023.47
2024-01-20T01:30:30.656Z,1023.47
2024-01-20T01:31:30.809Z,1023.47
2024-01-20T01:32:31.118Z,1023.55
2024-01-20T01:33:31.202Z,1023.51
2024-01-20T01:34:31.429Z,1023.45
2024-01-20T01:35:31.613Z,1023.54
2024-01-20T01:36:31.760Z,1023.49
2024-01-20T01:37:31.967Z,1023.46
2024-01-20T01:38:32.130Z,1023.62
2024-01-20T01:39:32.306Z,1023.58
2024-01-20T01:40:32.510Z,1023.65
2024-01-20T01:41:32.680Z,1023.53
2024-01-20T01:42:32.867Z,1023.57
2024-01-20T01:43:33.028Z,1023.55
2024-01-20T01:44:33.234Z,1023.50
2024-01-20T01:45:33.418Z,1023.54
2024-01-20T01:46:33.622Z,1023.54
2024-01-20T01:47:33.867Z,1023.59
2024-01-20T01:48:34.003Z,1023.45
2024-01-20T01:49:34.193Z,1023.53
2024-01-20T01:50:34.389Z,1023.31
2024-01-20T01:51:34.555Z,1023.56
2024-01-20T01:52:34.729Z,1023.60
2024-01-20T01:53:34.932Z,1023.62
2024-01-20T01:54:35.084Z,1023.62
2024-01-20T01:55:35.315Z,1023.59
2024-01-20T01:56:35.476Z,1023.59
2024-01-20T01:57:35.643Z,1023.64
2024-01-20T01:58:35.845Z,1023.61
2024-01-20T01:59:36.043Z,1023.66
2024-01-20T02:00:36.241Z,1023.66
2024-01-20T02:01:36.397Z,1023.59
2024-01-20T02:02:36.586Z,1023.48
2024-01-20T02:03:36.844Z,1023.61
2024-01-20T02:04:36.990Z,1023.60
2024-01-20T02:05:37.191Z,1023.70
2024-01-20T02:06:37.402Z,1023.63
2024-01-20T02:07:37.562Z,1023.61
2024-01-20T02:08:37.733Z,1023.68
2024-01-20T02:09:37.909Z,1023.75
2024-01-20T02:10:38.098Z,1023.70
2024-01-20T02:11:38.294Z,1023.68
2024-01-20T02:12:38.445Z,1023.64
2024-01-20T02:13:38.627Z,1023.59
2024-01-20T02:14:38.790Z,1023.62
2024-01-20T02:15:39.028Z,1023.62
2024-01-20T02:16:39.190Z,1023.63
2024-01-20T02:17:39.415Z,1023.60
2024-01-20T02:18:39.649Z,1023.63
2024-01-20T02:19:39.861Z,1023.65
2024-01-20T02:20:39.942Z,1023.67
2024-01-20T02:21:40.150Z,1023.53
2024-01-20T02:22:40.327Z,1023.51
2024-01-20T02:23:40.515Z,1023.65
2024-01-20T02:24:40.716Z,1023.60
2024-01-20T02:25:40.864Z,1023.69
2024-01-20T02:26:41.057Z,1023.68
2024-01-20T02:27:41.256Z,1023.79
2024-01-20T02:28:41.434Z,1023.54
2024-01-20T02:29:41.686Z,1023.51
2024-01-20T02:30:41.829Z,1023.70
2024-01-20T02:31:41.979Z,1023.71
2024-01-20T02:32:42.218Z,1023.70
2024-01-20T02:33:42.531Z,1023.72
2024-01-20T02:34:42.539Z,1023.73
2024-01-20T02:35:42.720Z,1023.71
2024-01-20T02:36:42.875Z,1023.66
2024-01-20T02:37:43.067Z,1023.64
2024-01-20T02:38:43.277Z,1023.71
2024-01-20T02:39:43.439Z,1023.70
2024-01-20T02:40:43.656Z,1023.68
2024-01-20T02:41:43.824Z,1023.76
2024-01-20T02:42:44.031Z,1023.69
2024-01-20T02:43:44.324Z,1023.66
2024-01-20T02:44:44.364Z,1023.67
2024-01-20T02:45:44.585Z,1023.64
2024-01-20T02:46:44.771Z,1023.70
2024-01-20T02:47:45.014Z,1023.66
2024-01-20T02:48:45.279Z,1023.62
2024-01-20T02:49:45.441Z,1023.64
2024-01-20T02:50:45.506Z,1023.60
2024-01-20T02:51:45.685Z,1023.58
2024-01-20T02:52:45.861Z,1023.75
2024-01-20T02:53:46.036Z,1023.70
2024-01-20T02:54:46.213Z,1023.68
2024-01-20T02:55:46.432Z,1023.69
2024-01-20T02:56:46.568Z,1023.70
2024-01-20T02:57:46.777Z,1023.61
2024-01-20T02:58:46.945Z,1023.76
2024-01-20T02:59:47.178Z,1023.78
2024-01-20T03:00:47.427Z,1023.79
2024-01-20T03:01:47.563Z,1023.98
2024-01-20T03:02:47.766Z,1023.62
2024-01-20T03:03:47.976Z,1023.79
2024-01-20T03:04:48.113Z,1023.74
2024-01-20T03:05:48.327Z,1023.71
2024-01-20T03:06:48.480Z,1023.85
2024-01-20T03:07:48.642Z,1023.71
2024-01-20T03:08:48.845Z,1023.87
2024-01-20T03:09:49.033Z,1023.95
2024-01-20T03:10:49.191Z,1023.79
2024-01-20T03:11:49.426Z,1023.81
2024-01-20T03:12:49.611Z,1023.64
2024-01-20T03:13:49.768Z,1023.72
2024-01-20T03:14:50.027Z,1023.81
2024-01-20T03:15:50.151Z,1023.80
2024-01-20T03:16:50.379Z,1023.86
2024-01-20T03:17:50.602Z,1023.69
2024-01-20T03:18:51.177Z,1023.85
2024-01-20T03:19:51.026Z,1023.85
2024-01-20T03:20:51.160Z,1023.86
2024-01-20T03:21:51.324Z,1023.93
2024-01-20T03:22:51.510Z,1024.02
2024-01-20T03:23:51.740Z,1023.98
2024-01-20T03:24:51.930Z,1024.01
2024-01-20T03:25:52.012Z,1023.93
2024-01-20T03:26:52.266Z,1023.94
2024-01-20T03:27:52.380Z,1023.98
2024-01-20T03:28:52.572Z,1024.05
2024-01-20T03:29:52.793Z,1024.13
2024-01-20T03:30:52.924Z,1024.04
2024-01-20T03:31:53.108Z,1024.02
2024-01-20T03:32:53.450Z,1024.04
2024-01-20T03:33:53.650Z,1024.04
2024-01-20T03:34:53.684Z,1024.13
2024-01-20T03:35:53.912Z,1024.14
2024-01-20T03:36:54.062Z,1024.12
2024-01-20T03:37:54.271Z,1024.19
2024-01-20T03:38:54.497Z,1024.22
2024-01-20T03:39:54.659Z,1024.14
2024-01-20T03:40:54.809Z,1024.22
2024-01-20T03:41:55.062Z,1024.28
2024-01-20T03:42:55.188Z,1024.14
2024-01-20T03:43:55.402Z,1024.28
2024-01-20T03:44:55.612Z,1024.22
2024-01-20T03:45:55.781Z,1024.11
2024-01-20T03:46:55.943Z,1024.25
2024-01-20T03:47:56.297Z,1024.31
2024-01-20T03:48:56.483Z,1024.32
2024-01-20T03:49:56.556Z,1024.26
2024-01-20T03:50:56.710Z,1024.28
2024-01-20T03:51:56.864Z,1024.28
2024-01-20T03:52:57.137Z,1024.36
2024-01-20T03:53:57.321Z,1024.39
2024-01-20T03:54:57.398Z,1024.41
2024-01-20T03:55:57.591Z,1024.39
2024-01-20T03:56:57.852Z,1024.36
2024-01-20T03:57:57.956Z,1024.39
2024-01-20T03:58:58.170Z,1024.55
2024-01-20T03:59:58.383Z,1024.51
2024-01-20T04:00:58.522Z,1024.51
2024-01-20T04:01:58.705Z,1024.37
2024-01-20T04:02:58.943Z,1024.44
2024-01-20T04:03:59.162Z,1024.42
2024-01-20T04:04:59.299Z,1024.47
2024-01-20T04:05:59.491Z,1024.52
2024-01-20T04:06:59.686Z,1024.47
2024-01-20T04:07:59.814Z,1024.49
2024-01-20T04:09:00.050Z,1024.59
2024-01-20T04:10:00.287Z,1024.48
2024-01-20T04:11:00.357Z,1024.45
2024-01-20T04:12:00.575Z,1024.49
2024-01-20T04:13:00.755Z,1024.55
2024-01-20T04:14:00.912Z,1024.48
2024-01-20T04:15:01.154Z,1024.49
2024-01-20T04:16:01.320Z,1024.48
2024-01-20T04:17:01.470Z,1024.50
2024-01-20T04:18:01.764Z,1024.60
2024-01-20T04:19:01.903Z,1024.44
2024-01-20T04:20:02.030Z,1024.50
2024-01-20T04:21:02.235Z,1024.48
2024-01-20T04:22:02.386Z,1024.53
2024-01-20T04:23:02.583Z,1024.61
2024-01-20T04:24:02.887Z,1024.61
2024-01-20T04:25:02.949Z,1024.57
2024-01-20T04:26:03.336Z,1024.48
2024-01-20T04:27:03.421Z,1024.50
2024-01-20T04:28:03.535Z,1024.49
2024-01-20T04:29:03.705Z,1024.53
2024-01-20T04:30:03.925Z,1024.52
2024-01-20T04:31:04.039Z,1024.54
2024-01-20T04:32:04.308Z,1024.49
2024-01-20T04:33:04.578Z,1024.49
2024-01-20T04:34:04.673Z,1024.61
2024-01-20T04:35:04.805Z,1024.53
2024-01-20T04:36:05.028Z,1024.55
2024-01-20T04:37:05.169Z,1024.49
2024-01-20T04:38:05.375Z,1024.51
2024-01-20T04:39:05.542Z,1024.52
2024-01-20T04:40:05.715Z,1024.58
2024-01-20T04:41:05.920Z,1024.51
2024-01-20T04:42:06.103Z,1024.49
2024-01-20T04:43:06.281Z,1024.67
2024-01-20T04:44:06.445Z,1024.58
2024-01-20T04:45:06.653Z,1024.57
2024-01-20T04:46:06.808Z,1024.56
2024-01-20T04:47:07.043Z,1024.56
2024-01-20T04:48:07.389Z,1024.54
2024-01-20T04:49:07.499Z,1024.64
2024-01-20T04:50:07.621Z,1024.62
2024-01-20T04:51:07.788Z,1024.81
2024-01-20T04:52:07.947Z,1024.63
2024-01-20T04:53:08.181Z,1024.59
2024-01-20T04:54:08.316Z,1024.56
2024-01-20T04:55:08.503Z,1024.56
2024-01-20T04:56:08.692Z,1024.65
2024-01-20T04:57:08.923Z,1024.64
2024-01-20T04:58:09.111Z,1024.64
2024-01-20T04:59:09.286Z,1024.67
2024-01-20T05:00:09.490Z,1024.72
2024-01-20T05:01:09.644Z,1024.63
2024-01-20T05:02:09.815Z,1024.67
2024-01-20T05:03:10.014Z,1024.66
2024-01-20T05:04:10.222Z,1024.62
2024-01-20T05:05:10.340Z,1024.75
2024-01-20T05:06:10.689Z,1024.67
2024-01-20T05:07:10.887Z,1024.65
2024-01-20T05:08:10.919Z,1024.72
2024-01-20T05:09:11.143Z,1024.65
2024-01-20T05:10:11.293Z,1024.63
2024-01-20T05:11:11.488Z,1024.76
2024-01-20T05:12:11.673Z,1024.78
2024-01-20T05:13:11.857Z,1024.85
2024-01-20T05:14:12.019Z,1024.83
2024-01-20T05:15:12.342Z,1024.85
2024-01-20T05:16:12.374Z,1024.80
2024-01-20T05:17:12.553Z,1024.78
2024-01-20T05:18:12.940Z,1024.87
2024-01-20T05:19:12.989Z,1024.88
2024-01-20T05:20:13.254Z,1024.88
2024-01-20T05:21:13.344Z,1024.88
2024-01-20T05:22:13.480Z,1024.86
2024-01-20T05:23:13.672Z,1024.94
2024-01-20T05:24:13.898Z,1024.90
2024-01-20T05:25:14.046Z,1024.94
2024-01-20T05:26:14.211Z,1024.95
2024-01-20T05:27:14.407Z,1024.96
2024-01-20T05:28:14.572Z,1024.94
2024-01-20T05:29:14.744Z,1024.95
2024-01-20T05:30:14.924Z,1024.94
2024-01-20T05:31:15.121Z,1024.93
2024-01-20T05:32:15.290Z,1025.00
2024-01-20T05:33:15.557Z,1025.02
2024-01-20T05:34:15.879Z,1025.06
2024-01-20T05:35:15.859Z,1025.03
2024-01-20T05:36:16.105Z,1024.99
2024-01-20T05:37:16.221Z,1024.97
2024-01-20T05:38:16.392Z,1025.04
2024-01-20T05:39:16.615Z,1025.08
2024-01-20T05:40:16.764Z,1025.06
2024-01-20T05:41:16.953Z,1025.11
2024-01-20T05:42:17.148Z,1025.07
2024-01-20T05:43:17.303Z,1025.19
2024-01-20T05:44:17.536Z,1025.12
2024-01-20T05:45:17.772Z,1025.19
2024-01-20T05:46:17.892Z,1025.19
2024-01-20T05:47:18.068Z,1025.17
2024-01-20T05:48:18.507Z,1025.18
2024-01-20T05:49:18.556Z,1025.12
2024-01-20T05:50:18.653Z,1025.16
2024-01-20T05:51:18.954Z,1025.12
2024-01-20T05:52:19.027Z,1025.09
2024-01-20T05:53:19.205Z,1025.05
2024-01-20T05:54:19.458Z,1025.18
2024-01-20T05:55:19.589Z,1025.13
2024-01-20T05:56:19.781Z,1025.28
2024-01-20T05:57:20.019Z,1025.20
2024-01-20T05:58:20.169Z,1025.16
2024-01-20T05:59:20.366Z,1025.16
2024-01-20T06:00:20.610Z,1025.16
2024-01-20T06:01:20.753Z,1025.22
2024-01-20T06:02:20.947Z,1025.19
2024-01-20T06:03:21.134Z,1025.18
2024-01-20T06:04:21.369Z,1025.23
2024-01-20T06:05:21.629Z,1025.22
2024-01-20T06:06:21.768Z,1025.21
2024-01-20T06:07:21.902Z,1025.24
2024-01-20T06:08:22.096Z,1025.19
2024-01-20T06:09:22.314Z,1025.28
2024-01-20T06:10:22.480Z,1025.28
2024-01-20T06:11:22.611Z,1025.29
2024-01-20T06:12:22.844Z,1025.31
2024-01-20T06:13:22.991Z,1025.29
2024-01-20T06:14:23.160Z,1025.24
2024-01-20T06:15:23.389Z,1025.32
2024-01-20T06:16:23.524Z,1025.34
2024-01-20T06:17:23.690Z,1025.29
2024-01-20T06:18:23.990Z,1025.35
2024-01-20T06:19:24.153Z,1025.28
2024-01-20T06:20:24.255Z,1025.31
2024-01-20T06:21:24.487Z,1025.26
2024-01-20T06:22:24.634Z,1025.34
2024-01-20T06:23:24.798Z,1025.31
2024-01-20T06:24:25.015Z,1025.37
2024-01-20T06:25:25.178Z,1025.28
2024-01-20T06:26:25.352Z,1025.39
2024-01-20T06:27:25.560Z,1025.34
2024-01-20T06:28:25.720Z,1025.31
2024-01-20T06:29:25.897Z,1025.32
2024-01-20T06:30:26.111Z,1025.32
2024-01-20T06:31:26.271Z,1025.29
2024-01-20T06:32:26.472Z,1025.35
2024-01-20T06:33:26.742Z,1025.30
2024-01-20T06:34:26.998Z,1025.36
2024-01-20T06:35:27.016Z,1025.37
2024-01-20T06:36:27.212Z,1025.45
2024-01-20T06:37:27.375Z,1025.46
2024-01-20T06:38:27.550Z,1025.50
2024-01-20T06:39:27.782Z,1025.43
2024-01-20T06:40:27.921Z,1025.43
2024-01-20T06:41:28.124Z,1025.49
2024-01-20T06:42:28.365Z,1025.35
2024-01-20T06:43:28.545Z,1025.36
2024-01-20T06:44:28.670Z,1025.34
2024-01-20T06:45:28.861Z,1025.32
2024-01-20T06:46:29.023Z,1025.47
2024-01-20T06:47:29.194Z,1025.38
2024-01-20T06:48:29.528Z,1025.37
2024-01-20T06:49:29.694Z,1025.49
2024-01-20T06:50:29.746Z,1025.52
2024-01-20T06:51:30.021Z,1025.42
2024-01-20T06:52:30.147Z,1025.42
2024-01-20T06:53:30.336Z,1025.42
2024-01-20T06:54:30.620Z,1025.42
2024-01-20T06:55:30.680Z,1025.42
2024-01-20T06:56:30.860Z,1025.38
2024-01-20T06:57:31.462Z,1025.49
2024-01-20T06:58:31.281Z,1025.36
2024-01-20T06:59:31.426Z,1025.46
2024-01-20T07:00:31.774Z,1025.34
2024-01-20T07:01:31.829Z,1025.57
2024-01-20T07:02:32.049Z,1025.59
2024-01-20T07:03:32.256Z,1025.76
2024-01-20T07:04:32.496Z,1025.62
2024-01-20T07:05:32.577Z,1025.57
2024-01-20T07:06:32.751Z,1025.62
2024-01-20T07:07:32.935Z,1025.65
2024-01-20T07:08:33.138Z,1025.62
2024-01-20T07:09:33.422Z,1025.65
2024-01-20T07:10:33.500Z,1025.65
2024-01-20T07:11:33.676Z,1025.52
2024-01-20T07:12:33.900Z,1025.57
2024-01-20T07:13:34.076Z,1025.64
2024-01-20T07:14:34.218Z,1025.64
2024-01-20T07:15:34.476Z,1025.67
2024-01-20T07:16:34.600Z,1025.70
2024-01-20T07:17:34.791Z,1025.67
2024-01-20T07:18:34.993Z,1025.80
2024-01-20T07:19:35.201Z,1025.66
2024-01-20T07:20:35.319Z,1025.73
2024-01-20T07:21:35.513Z,1025.74
2024-01-20T07:22:35.698Z,1025.74
2024-01-20T07:23:35.912Z,1025.74
2024-01-20T07:24:36.144Z,1025.71
2024-01-20T07:25:36.261Z,1025.75
2024-01-20T07:26:36.447Z,1025.67
2024-01-20T07:27:36.636Z,1025.63
2024-01-20T07:28:36.933Z,1025.72
2024-01-20T07:29:37.000Z,1025.71
2024-01-20T07:30:37.219Z,1025.66
2024-01-20T07:31:37.355Z,1025.62
2024-01-20T07:32:37.590Z,1025.67
2024-01-20T07:33:37.782Z,1025.63
2024-01-20T07:34:37.979Z,1025.63
2024-01-20T07:35:38.062Z,1025.62
2024-01-20T07:36:38.295Z,1025.61
2024-01-20T07:37:38.415Z,1025.65
2024-01-20T07:38:38.613Z,1025.65
2024-01-20T07:39:38.883Z,1025.63
2024-01-20T07:40:38.993Z,1025.66
2024-01-20T07:41:39.186Z,1025.64
2024-01-20T07:42:39.409Z,1025.69
2024-01-20T07:43:39.585Z,1025.71
2024-01-20T07:44:39.765Z,1025.72
2024-01-20T07:45:40.059Z,1025.72
2024-01-20T07:46:40.149Z,1025.81
2024-01-20T07:47:40.349Z,1025.80
2024-01-20T07:48:40.724Z,1025.80
2024-01-20T07:49:40.728Z,1025.75
2024-01-20T07:50:40.880Z,1025.76
2024-01-20T07:51:41.142Z,1025.76
2024-01-20T07:52:41.272Z,1025.85
2024-01-20T07:53:41.433Z,1025.85
2024-01-20T07:54:41.649Z,1025.82
2024-01-20T07:55:41.814Z,1025.95
2024-01-20T07:56:41.975Z,1025.94
2024-01-20T07:57:42.207Z,1026.03
2024-01-20T07:58:42.361Z,1025.97
2024-01-20T07:59:42.539Z,1026.03
2024-01-20T08:00:42.811Z,1026.05
2024-01-20T08:01:42.888Z,1026.04
2024-01-20T08:02:43.096Z,1026.11
2024-01-20T08:03:43.306Z,1026.13
2024-01-20T08:04:43.471Z,1026.09
2024-01-20T08:05:43.658Z,1026.16
2024-01-20T08:06:43.999Z,1026.25
2024-01-20T08:07:44.006Z,1026.06
2024-01-20T08:08:44.184Z,1026.02
2024-01-20T08:09:44.408Z,1025.99
2024-01-20T08:10:44.567Z,1026.03
2024-01-20T08:11:44.729Z,1025.98
2024-01-20T08:12:44.981Z,1026.03
2024-01-20T08:13:45.095Z,1026.01
2024-01-20T08:14:45.252Z,1025.98
2024-01-20T08:15:45.643Z,1025.92
2024-01-20T08:16:45.613Z,1026.01
2024-01-20T08:17:45.832Z,1026.01
2024-01-20T08:18:46.056Z,1025.93
2024-01-20T08:19:46.176Z,1025.95
2024-01-20T08:20:46.353Z,1025.99
2024-01-20T08:21:46.559Z,1025.97
2024-01-20T08:22:46.757Z,1026.00
2024-01-20T08:23:46.935Z,1025.94
2024-01-20T08:24:48.062Z,1025.95
2024-01-20T08:25:47.315Z,1025.94
2024-01-20T08:26:47.510Z,1025.91
2024-01-20T08:27:47.680Z,1026.15
2024-01-20T08:28:47.984Z,1025.99
2024-01-20T08:29:48.043Z,1025.97
2024-01-20T08:30:48.270Z,1026.02
2024-01-20T08:31:49.413Z,1025.95
2024-01-20T08:32:48.689Z,1025.97
2024-01-20T08:33:49.011Z,1025.98
2024-01-20T08:34:48.998Z,1026.05
2024-01-20T08:35:49.142Z,1026.01
2024-01-20T08:36:49.352Z,1025.95
2024-01-20T08:37:49.544Z,1026.05
2024-01-20T08:38:49.738Z,1026.01
2024-01-20T08:39:49.937Z,1025.99
2024-01-20T08:40:50.144Z,1026.11
2024-01-20T08:41:50.412Z,1026.10
2024-01-20T08:42:50.515Z,1026.13
2024-01-20T08:43:50.712Z,1026.05
2024-01-20T08:44:50.914Z,1026.12
2024-01-20T08:45:51.089Z,1026.12
2024-01-20T08:46:51.352Z,1026.09
2024-01-20T08:47:51.490Z,1026.22
2024-01-20T08:48:51.667Z,1026.19
2024-01-20T08:49:51.812Z,1026.15
2024-01-20T08:50:51.986Z,1026.06
2024-01-20T08:51:52.352Z,1026.15
2024-01-20T08:52:52.399Z,1026.14
2024-01-20T08:53:52.543Z,1026.15
2024-01-20T08:54:52.698Z,1026.16
2024-01-20T08:55:52.863Z,1026.16
2024-01-20T08:56:53.101Z,1026.22
2024-01-20T08:57:53.278Z,1026.31
2024-01-20T08:58:53.425Z,1026.29
2024-01-20T08:59:53.592Z,1026.32
2024-01-20T09:00:54.008Z,1026.40
2024-01-20T09:01:53.966Z,1026.49
2024-01-20T09:02:54.221Z,1026.31
2024-01-20T09:03:54.376Z,1026.35
2024-01-20T09:04:54.502Z,1026.44
2024-01-20T09:05:54.732Z,1026.43
2024-01-20T09:06:54.932Z,1026.58
2024-01-20T09:07:55.067Z,1026.35
2024-01-20T09:08:55.794Z,1026.39
2024-01-20T09:09:57.018Z,1026.55
2024-01-20T09:10:55.657Z,1026.41
2024-01-20T09:11:55.922Z,1026.57
2024-01-20T09:12:56.011Z,1026.51
2024-01-20T09:13:56.205Z,1026.53
2024-01-20T09:14:56.494Z,1026.43
2024-01-20T09:15:56.740Z,1026.53
2024-01-20T09:16:56.766Z,1026.51
2024-01-20T09:17:57.025Z,1026.55
2024-01-20T09:18:57.235Z,1026.53
2024-01-20T09:19:57.565Z,1026.63
2024-01-20T09:20:57.479Z,1026.65
2024-01-20T09:21:57.685Z,1026.56
2024-01-20T09:22:57.812Z,1026.54
2024-01-20T09:23:58.028Z,1026.53
2024-01-20T09:24:58.188Z,1026.59
2024-01-20T09:25:58.363Z,1026.55
2024-01-20T09:26:58.584Z,1026.60
2024-01-20T09:27:58.726Z,1026.56
2024-01-20T09:28:58.919Z,1026.68
2024-01-20T09:29:59.140Z,1026.60
2024-01-20T09:30:59.264Z,1026.64
2024-01-20T09:31:59.464Z,1026.64
2024-01-20T09:32:59.764Z,1026.71
2024-01-20T09:33:59.992Z,1026.75
2024-01-20T09:35:00.025Z,1026.86
2024-01-20T09:36:00.258Z,1026.64
2024-01-20T09:37:00.405Z,1026.75
2024-01-20T09:38:00.553Z,1026.79
2024-01-20T09:39:00.809Z,1026.78
2024-01-20T09:40:00.935Z,1026.77
2024-01-20T09:41:01.124Z,1026.85
2024-01-20T09:42:01.329Z,1026.85
2024-01-20T09:43:01.515Z,1026.83
2024-01-20T09:44:01.655Z,1026.86
2024-01-20T09:45:01.857Z,1026.85
2024-01-20T09:46:02.018Z,1026.92
2024-01-20T09:47:02.218Z,1026.99
2024-01-20T09:48:02.598Z,1026.86
2024-01-20T09:49:02.859Z,1026.83
2024-01-20T09:50:02.755Z,1026.86
2024-01-20T09:51:02.988Z,1026.81
2024-01-20T09:52:03.123Z,1026.96
2024-01-20T09:53:03.307Z,1026.92
2024-01-20T09:54:03.556Z,1026.80
2024-01-20T09:55:03.656Z,1026.86
2024-01-20T09:56:03.846Z,1026.88
2024-01-20T09:57:04.099Z,1026.79
2024-01-20T09:58:04.207Z,1026.76
2024-01-20T09:59:04.381Z,1026.80
2024-01-20T10:00:04.571Z,1026.83
2024-01-20T10:01:04.922Z,1026.82
2024-01-20T10:02:04.999Z,1026.86
2024-01-20T10:03:06.734Z,1026.89
2024-01-20T10:04:05.463Z,1026.98
2024-01-20T10:05:05.560Z,1026.91
2024-01-20T10:06:05.688Z,1026.93
2024-01-20T10:07:05.845Z,1026.88
2024-01-20T10:08:06.012Z,1026.85
2024-01-20T10:09:06.203Z,1026.87
2024-01-20T10:10:06.435Z,1026.86
2024-01-20T10:11:06.549Z,1026.87
2024-01-20T10:12:06.844Z,1026.85
2024-01-20T10:13:06.950Z,1026.84
2024-01-20T10:14:07.115Z,1026.87
2024-01-20T10:15:07.329Z,1026.88
2024-01-20T10:16:07.508Z,1026.84
2024-01-20T10:17:07.684Z,1026.91
2024-01-20T10:18:08.028Z,1026.85
2024-01-20T10:19:08.046Z,1026.82
2024-01-20T10:20:08.297Z,1026.75
2024-01-20T10:21:08.486Z,1026.89
2024-01-20T10:22:08.624Z,1026.86
2024-01-20T10:23:09.079Z,1026.87
2024-01-20T10:24:08.981Z,1026.78
2024-01-20T10:25:09.124Z,1026.86
2024-01-20T10:26:09.295Z,1026.86
2024-01-20T10:27:09.531Z,1026.90
2024-01-20T10:28:09.654Z,1026.95
2024-01-20T10:29:09.822Z,1026.88
2024-01-20T10:30:10.009Z,1026.93
2024-01-20T10:31:10.357Z,1026.95
2024-01-20T10:32:10.386Z,1026.90
2024-01-20T10:33:11.394Z,1026.90
2024-01-20T10:34:10.858Z,1026.87
2024-01-20T10:35:11.001Z,1027.01
2024-01-20T10:36:11.210Z,1026.90
2024-01-20T10:37:11.345Z,1027.01
2024-01-20T10:38:11.548Z,1026.94
2024-01-20T10:39:11.728Z,1026.89
2024-01-20T10:40:11.914Z,1026.92
2024-01-20T10:41:12.071Z,1026.86
2024-01-20T10:42:12.279Z,1027.00
2024-01-20T10:43:12.421Z,1026.93
2024-01-20T10:44:12.609Z,1027.00
2024-01-20T10:45:12.828Z,1026.97
2024-01-20T10:46:12.992Z,1026.96
2024-01-20T10:47:13.653Z,1027.03
2024-01-20T10:48:13.430Z,1027.02
2024-01-20T10:49:13.665Z,1026.95
2024-01-20T10:50:13.662Z,1026.98
2024-01-20T10:51:13.898Z,1027.03
2024-01-20T10:52:14.027Z,1026.99
2024-01-20T10:53:14.225Z,1026.96
2024-01-20T10:54:14.400Z,1026.89
2024-01-20T10:55:14.590Z,1026.96
2024-01-20T10:56:16.249Z,1026.94
2024-01-20T10:57:15.019Z,1026.91
2024-01-20T10:58:15.169Z,1026.98
2024-01-20T10:59:17.771Z,1026.95
2024-01-20T11:00:15.519Z,1026.98
2024-01-20T11:01:15.717Z,1026.97
2024-01-20T11:02:15.900Z,1027.02
2024-01-20T11:03:16.170Z,1026.96
2024-01-20T11:04:16.290Z,1026.99
2024-01-20T11:05:16.474Z,1027.00
2024-01-20T11:06:18.096Z,1027.01
2024-01-20T11:07:16.790Z,1027.00
2024-01-20T11:08:16.959Z,1027.05
2024-01-20T11:09:17.170Z,1027.09
2024-01-20T11:10:17.342Z,1027.06
2024-01-20T11:11:17.521Z,1027.04
2024-01-20T11:12:17.712Z,1027.01
2024-01-20T11:13:18.896Z,1027.00
2024-01-20T11:14:18.158Z,1027.01
2024-01-20T11:15:18.282Z,1027.05
2024-01-20T11:16:18.431Z,1026.99
2024-01-20T11:17:18.615Z,1027.03
2024-01-20T11:18:18.971Z,1027.03
2024-01-20T11:19:19.024Z,1026.96
2024-01-20T11:20:19.178Z,1026.90
2024-01-20T11:21:19.437Z,1026.95
2024-01-20T11:22:19.544Z,1026.88
2024-01-20T11:23:19.764Z,1026.86
2024-01-20T11:24:19.959Z,1026.82
2024-01-20T11:25:20.138Z,1026.80
2024-01-20T11:26:20.374Z,1026.85
2024-01-20T11:27:20.519Z,1026.78
2024-01-20T11:28:20.673Z,1026.78
2024-01-20T11:29:20.839Z,1026.79
2024-01-20T11:30:21.046Z,1026.84
2024-01-20T11:31:21.262Z,1026.73
2024-01-20T11:32:21.371Z,1026.78
2024-01-20T11:33:21.704Z,1026.75
2024-01-20T11:34:21.888Z,1026.70
2024-01-20T11:35:21.906Z,1026.78
2024-01-20T11:36:22.098Z,1026.76
2024-01-20T11:37:22.277Z,1026.74
2024-01-20T11:38:22.466Z,1026.86
2024-01-20T11:39:22.660Z,1026.80
2024-01-20T11:40:22.807Z,1026.81
2024-01-20T11:41:22.995Z,1026.88
2024-01-20T11:42:23.209Z,1026.81
2024-01-20T11:43:23.386Z,1026.80
2024-01-20T11:44:23.516Z,1026.79
2024-01-20T11:45:23.737Z,1026.79
2024-01-20T11:46:23.876Z,1026.80
2024-01-20T11:47:24.043Z,1026.78
2024-01-20T11:48:24.459Z,1026.81
2024-01-20T11:49:24.516Z,1026.79
2024-01-20T11:50:24.601Z,1026.74
2024-01-20T11:51:24.796Z,1026.81
2024-01-20T11:52:24.967Z,1026.76
2024-01-20T11:53:25.162Z,1026.73
2024-01-20T11:54:25.494Z,1026.69
2024-01-20T11:55:25.504Z,1026.62
2024-01-20T11:56:25.731Z,1026.66
2024-01-20T11:57:25.992Z,1026.70
2024-01-20T11:58:26.088Z,1026.63
2024-01-20T11:59:26.269Z,1026.62
2024-01-20T12:00:26.483Z,1026.65
2024-01-20T12:01:26.749Z,1026.60
2024-01-20T12:02:26.838Z,1026.65
2024-01-20T12:03:27.084Z,1026.69
2024-01-20T12:04:27.202Z,1026.65
2024-01-20T12:05:27.452Z,1026.68
2024-01-20T12:06:27.592Z,1026.69
2024-01-20T12:07:27.761Z,1026.81